Time;durP1;ratioP1;P1;durP2;ratioP2;P2;SDS_P1;SDS_P2;PMS_P1;PMS_P2;Temp;Humidity;BMP_temperature;BMP_pressure;BME280_temperature;BME280_humidity;BME280_pressure;Samples;Min_cycle;Max_cycle;Signal;HPM_P1;HPM_P2
2022/08/20 00:00:22;;;;;;;16.65;15.00;;;20.10;88.10;;;;;;4948010;28;20578;-57
2022/08/20 00:02:53;;;;;;;16.42;14.43;;;20.20;88.20;;;;;;4952133;28;20062;-58
2022/08/20 00:05:25;;;;;;;15.52;14.00;;;20.20;88.20;;;;;;4952924;28;20093;-59
2022/08/20 00:07:51;;;;;;;14.75;13.32;;;20.20;88.30;;;;;;4950412;28;22101;-58
2022/08/20 00:10:17;;;;;;;15.10;13.65;;;20.10;88.10;;;;;;4953577;28;20063;-58
2022/08/20 00:12:45;;;;;;;15.35;13.75;;;20.20;88.10;;;;;;4948366;28;20042;-58
2022/08/20 00:15:12;;;;;;;14.85;13.35;;;20.10;88.00;;;;;;4952404;28;20094;-59
2022/08/20 00:17:39;;;;;;;15.40;13.80;;;20.10;88.00;;;;;;4951503;28;20648;-60
2022/08/20 00:20:09;;;;;;;18.13;13.73;;;20.10;88.80;;;;;;4953029;28;20134;-58
2022/08/20 00:22:35;;;;;;;14.30;12.88;;;20.10;88.00;;;;;;4955012;28;20400;-58
2022/08/20 00:25:03;;;;;;;15.75;13.25;;;20.10;88.10;;;;;;4957037;28;20042;-58
2022/08/20 00:27:28;;;;;;;14.18;12.73;;;20.10;88.00;;;;;;4956351;28;20490;-59
2022/08/20 00:29:54;;;;;;;14.55;12.98;;;20.10;88.00;;;;;;4957545;28;20093;-59
2022/08/20 00:32:21;;;;;;;13.05;11.75;;;20.00;87.90;;;;;;4956367;28;20490;-59
2022/08/20 00:34:47;;;;;;;13.40;12.10;;;20.10;88.00;;;;;;4957705;28;20042;-59
2022/08/20 00:37:12;;;;;;;15.52;12.77;;;20.10;88.00;;;;;;4959197;28;20110;-58
2022/08/20 00:39:38;;;;;;;13.23;11.82;;;20.20;88.00;;;;;;4958076;28;20070;-58
2022/08/20 00:42:04;;;;;;;14.00;12.57;;;20.10;87.90;;;;;;4959375;28;20057;-58
2022/08/20 00:44:29;;;;;;;13.80;12.32;;;20.10;87.80;;;;;;4958928;28;20081;-58
2022/08/20 00:46:55;;;;;;;13.90;12.57;;;20.10;87.60;;;;;;4959303;28;20039;-61
2022/08/20 00:49:24;;;;;;;14.18;12.68;;;20.10;87.70;;;;;;4960399;28;20038;-58
2022/08/20 00:52:08;;;;;;;14.30;12.80;;;20.10;87.80;;;;;;4960018;28;20036;-61
2022/08/20 00:54:48;;;;;;;16.98;12.82;;;20.10;87.80;;;;;;4959103;28;20062;-59
2022/08/20 00:57:28;;;;;;;13.82;12.35;;;20.10;87.80;;;;;;4960139;28;20114;-59
2022/08/20 00:59:56;;;;;;;13.68;12.07;;;20.10;87.80;;;;;;4961180;28;20035;-59
2022/08/20 01:02:26;;;;;;;14.27;12.50;;;20.10;87.70;;;;;;4951925;28;20030;-58
2022/08/20 01:04:53;;;;;;;13.20;11.90;;;20.10;87.70;;;;;;4961476;28;20582;-61
2022/08/20 01:07:20;;;;;;;13.30;12.00;;;20.10;87.70;;;;;;4956393;28;20031;-60
2022/08/20 01:09:47;;;;;;;13.52;12.13;;;20.10;87.80;;;;;;4960684;28;20050;-60
2022/08/20 01:12:14;;;;;;;13.35;11.95;;;20.10;87.80;;;;;;4952395;28;20042;-60
2022/08/20 01:14:45;;;;;;;14.57;12.25;;;20.00;88.60;;;;;;4960329;28;20039;-59
2022/08/20 01:17:16;;;;;;;13.80;12.40;;;20.10;87.90;;;;;;4956916;28;20094;-58
2022/08/20 01:19:51;;;;;;;13.60;12.20;;;20.00;87.80;;;;;;4957833;28;20074;-59
2022/08/20 01:25:19;;;;;;;12.75;11.48;;;20.00;87.60;;;;;;4958350;28;20070;-58
2022/08/20 01:27:46;;;;;;;14.48;12.40;;;20.10;87.70;;;;;;4960738;28;20047;-60
2022/08/20 01:30:12;;;;;;;13.90;12.00;;;20.00;87.70;;;;;;4959663;28;20062;-59
2022/08/20 01:32:38;;;;;;;13.50;12.13;;;20.10;87.80;;;;;;4956774;28;20503;-58
2022/08/20 01:35:04;;;;;;;13.50;11.95;;;20.10;87.90;;;;;;4958952;28;20403;-60
2022/08/20 01:37:30;;;;;;;13.07;11.73;;;20.00;88.70;;;;;;4958518;28;20049;-59
2022/08/20 01:39:55;;;;;;;12.82;11.63;;;20.00;87.90;;;;;;4959478;28;20455;-58
2022/08/20 01:42:39;;;;;;;12.68;11.38;;;20.00;87.80;;;;;;4958411;28;20035;-60
2022/08/20 01:45:06;;;;;;;12.95;10.80;;;20.00;88.00;;;;;;4958102;28;20038;-59
2022/08/20 01:47:32;;;;;;;13.52;10.80;;;20.00;87.80;;;;;;4956112;28;20455;-58
2022/08/20 01:50:01;;;;;;;12.35;11.07;;;20.00;87.80;;;;;;4960524;28;20177;-59
2022/08/20 01:52:41;;;;;;;12.68;11.32;;;20.00;87.90;;;;;;4957623;28;20042;-59
2022/08/20 01:55:09;;;;;;;12.48;11.20;;;20.00;88.10;;;;;;4960789;28;20410;-59
2022/08/20 01:57:35;;;;;;;11.80;10.70;;;20.00;88.00;;;;;;4958483;28;20130;-60
2022/08/20 02:00:03;;;;;;;11.75;10.65;;;20.00;88.00;;;;;;4960769;28;20154;-58
2022/08/20 02:02:29;;;;;;;11.82;10.70;;;20.00;88.00;;;;;;4958823;28;20039;-59
2022/08/20 02:04:57;;;;;;;12.48;11.27;;;20.00;87.90;;;;;;4958647;28;20039;-58
2022/08/20 02:07:23;;;;;;;12.40;11.18;;;20.00;87.90;;;;;;4957983;28;20071;-60
2022/08/20 02:09:49;;;;;;;12.13;10.93;;;20.00;88.00;;;;;;4958240;28;20035;-59
2022/08/20 02:12:16;;;;;;;12.30;10.95;;;20.00;87.80;;;;;;4949861;28;20447;-59
2022/08/20 02:14:48;;;;;;;12.98;11.35;;;20.00;87.70;;;;;;4957144;28;20047;-59
2022/08/20 02:17:14;;;;;;;12.27;11.18;;;20.00;87.50;;;;;;4959312;28;20031;-60
2022/08/20 02:19:45;;;;;;;11.90;10.60;;;20.00;87.60;;;;;;4954527;28;20325;-61
2022/08/20 02:22:25;;;;;;;12.70;11.40;;;20.00;87.60;;;;;;4955485;28;20043;-59
2022/08/20 02:24:51;;;;;;;12.50;11.25;;;20.00;87.60;;;;;;4954300;28;20039;-59
2022/08/20 02:27:17;;;;;;;12.60;11.10;;;20.00;87.50;;;;;;4943961;28;20391;-60
2022/08/20 02:29:44;;;;;;;11.45;10.35;;;20.00;88.30;;;;;;4953533;28;20035;-59
2022/08/20 02:32:10;;;;;;;11.60;10.43;;;20.00;87.40;;;;;;4955406;28;20039;-59
2022/08/20 02:34:36;;;;;;;11.98;10.77;;;20.00;87.40;;;;;;4950624;28;20035;-60
2022/08/20 02:37:03;;;;;;;10.98;9.88;;;20.00;87.40;;;;;;4955442;28;20544;-60
2022/08/20 02:39:29;;;;;;;11.50;10.40;;;20.00;87.30;;;;;;4949378;28;20047;-59
2022/08/20 02:41:54;;;;;;;11.60;10.40;;;20.00;87.40;;;;;;4954534;28;20035;-59
2022/08/20 02:44:20;;;;;;;11.50;10.40;;;20.00;87.50;;;;;;4954259;28;20126;-60
2022/08/20 02:46:48;;;;;;;12.35;9.90;;;20.00;87.50;;;;;;4954057;28;20047;-60
2022/08/20 02:49:18;;;;;;;10.80;9.70;;;20.00;87.50;;;;;;4957476;28;20039;-58
2022/08/20 02:51:45;;;;;;;9.63;8.68;;;20.00;87.50;;;;;;4951112;28;20090;-60
2022/08/20 02:54:12;;;;;;;10.45;9.45;;;20.00;87.70;;;;;;4955376;28;20084;-60
2022/08/20 02:56:38;;;;;;;10.70;9.60;;;20.00;87.60;;;;;;4952009;28;20086;-58
2022/08/20 02:59:04;;;;;;;10.57;9.57;;;20.00;87.50;;;;;;4953140;28;20051;-60
2022/08/20 03:01:30;;;;;;;10.73;9.73;;;20.00;87.40;;;;;;4953284;28;20054;-58
2022/08/20 03:03:57;;;;;;;11.23;10.13;;;20.00;87.40;;;;;;4953836;28;20051;-61
2022/08/20 03:06:25;;;;;;;12.38;10.20;;;20.00;87.40;;;;;;4952173;28;20513;-60
2022/08/20 03:08:50;;;;;;;12.32;10.10;;;20.00;87.30;;;;;;4951828;28;20046;-58
2022/08/20 03:11:17;;;;;;;12.23;10.43;;;19.90;87.20;;;;;;4947725;28;20031;-58
2022/08/20 03:13:43;;;;;;;11.13;10.13;;;19.90;87.20;;;;;;4942719;28;20094;-58
2022/08/20 03:16:09;;;;;;;11.27;10.13;;;20.00;87.20;;;;;;4956497;28;20042;-59
2022/08/20 03:18:41;;;;;;;11.70;10.50;;;19.90;87.20;;;;;;4957108;28;20333;-60
2022/08/20 03:21:08;;;;;;;11.35;10.07;;;20.00;87.10;;;;;;4957087;28;20045;-60
2022/08/20 03:23:35;;;;;;;11.80;10.18;;;19.90;87.10;;;;;;4958249;28;20055;-59
2022/08/20 03:26:02;;;;;;;11.27;10.10;;;19.90;87.00;;;;;;4957160;28;20041;-59
2022/08/20 03:28:28;;;;;;;11.70;9.32;;;19.90;86.90;;;;;;4956907;28;20455;-59
2022/08/20 03:30:55;;;;;;;11.10;10.00;;;19.90;86.90;;;;;;4951982;28;20027;-60
2022/08/20 03:33:20;;;;;;;11.05;9.80;;;19.90;86.80;;;;;;4954691;28;20054;-58
2022/08/20 03:35:46;;;;;;;10.85;9.75;;;19.90;86.70;;;;;;4930065;28;20039;-57
2022/08/20 03:38:15;;;;;;;11.20;10.10;;;19.90;86.70;;;;;;4954205;28;20046;-60
2022/08/20 03:40:41;;;;;;;10.13;9.23;;;19.90;86.70;;;;;;4951530;28;21180;-58
2022/08/20 03:43:07;;;;;;;10.70;9.60;;;19.80;86.70;;;;;;4951636;28;20031;-60
2022/08/20 03:45:35;;;;;;;10.20;9.18;;;19.80;86.70;;;;;;4950382;28;20508;-59
2022/08/20 03:48:01;;;;;;;10.13;9.15;;;19.80;86.70;;;;;;4954255;28;20504;-58
2022/08/20 03:50:29;;;;;;;10.13;9.13;;;19.80;86.80;;;;;;4951556;28;20584;-60
2022/08/20 03:52:56;;;;;;;9.77;8.77;;;19.70;86.70;;;;;;4952930;28;20039;-59
2022/08/20 03:55:23;;;;;;;10.18;9.10;;;19.80;86.90;;;;;;4953052;28;20035;-60
2022/08/20 03:57:52;;;;;;;9.40;8.50;;;19.80;86.70;;;;;;4952709;28;20130;-59
2022/08/20 04:00:23;;;;;;;8.70;7.93;;;19.80;86.70;;;;;;4950574;28;20038;-60
2022/08/20 04:02:48;;;;;;;8.35;7.65;;;19.80;86.70;;;;;;4953351;28;20513;-58
2022/08/20 04:05:14;;;;;;;7.90;7.20;;;19.70;86.70;;;;;;4954154;28;20042;-59
2022/08/20 04:07:40;;;;;;;8.43;7.60;;;19.70;86.70;;;;;;4951546;28;20884;-59
2022/08/20 04:10:09;;;;;;;9.20;8.40;;;19.70;86.80;;;;;;4954312;28;20153;-57
2022/08/20 04:12:39;;;;;;;10.30;8.48;;;19.70;86.90;;;;;;4951985;28;20045;-59
2022/08/20 04:15:09;;;;;;;9.02;8.20;;;19.70;87.00;;;;;;4958485;28;20045;-57
2022/08/20 04:17:37;;;;;;;9.77;8.30;;;19.70;86.90;;;;;;4953760;28;20519;-59
2022/08/20 04:20:05;;;;;;;9.85;8.85;;;19.70;86.80;;;;;;4958297;28;20077;-59
2022/08/20 04:22:30;;;;;;;9.93;8.95;;;19.70;86.80;;;;;;4957828;28;20138;-59
2022/08/20 04:24:56;;;;;;;10.02;9.02;;;19.70;86.80;;;;;;4954003;28;20498;-59
2022/08/20 04:27:22;;;;;;;9.88;8.95;;;19.70;86.90;;;;;;4957045;28;20451;-58
2022/08/20 04:29:48;;;;;;;9.63;8.73;;;19.70;86.80;;;;;;4956295;28;20034;-59
2022/08/20 04:32:13;;;;;;;11.23;8.55;;;19.70;87.60;;;;;;4957794;28;20046;-59
2022/08/20 04:34:39;;;;;;;9.35;8.45;;;19.70;86.80;;;;;;4957209;28;20529;-59
2022/08/20 04:37:06;;;;;;;9.43;8.43;;;19.60;86.70;;;;;;4957967;28;20035;-58
2022/08/20 04:39:32;;;;;;;10.00;8.68;;;19.70;86.90;;;;;;4952746;28;20053;-60
2022/08/20 04:41:57;;;;;;;11.85;8.10;;;19.60;87.80;;;;;;4958626;28;20122;-59
2022/08/20 04:44:23;;;;;;;9.25;8.30;;;19.70;87.00;;;;;;4954151;28;20131;-58
2022/08/20 04:46:49;;;;;;;8.98;8.07;;;19.70;86.90;;;;;;4954890;28;20066;-59
2022/08/20 04:49:14;;;;;;;9.23;8.38;;;19.70;86.90;;;;;;4955615;28;20067;-61
2022/08/20 04:51:40;;;;;;;9.07;8.20;;;19.70;87.00;;;;;;4955568;28;20042;-57
2022/08/20 04:54:06;;;;;;;9.43;8.48;;;19.70;86.80;;;;;;4957031;28;20038;-57
2022/08/20 04:56:37;;;;;;;8.75;7.95;;;19.70;86.80;;;;;;4955621;28;20063;-60
2022/08/20 04:59:04;;;;;;;9.75;8.48;;;19.70;86.80;;;;;;4956035;28;20069;-60
2022/08/20 05:01:30;;;;;;;9.15;8.25;;;19.70;86.80;;;;;;4955415;28;20043;-60
2022/08/20 05:03:58;;;;;;;9.05;8.25;;;19.70;86.80;;;;;;4957868;28;20073;-59
2022/08/20 05:06:27;;;;;;;9.77;8.88;;;19.60;86.80;;;;;;4955547;28;20593;-59
2022/08/20 05:08:54;;;;;;;8.65;7.85;;;19.60;86.90;;;;;;4956754;28;20503;-59
2022/08/20 05:11:21;;;;;;;9.88;8.88;;;19.70;86.90;;;;;;4949449;28;21237;-58
2022/08/20 05:13:47;;;;;;;9.43;8.52;;;19.60;86.70;;;;;;4955322;28;20042;-59
2022/08/20 05:16:15;;;;;;;10.85;8.30;;;19.60;86.60;;;;;;4955459;28;20074;-59
2022/08/20 05:18:42;;;;;;;10.43;7.95;;;19.70;86.70;;;;;;4954765;28;20040;-60
2022/08/20 05:21:07;;;;;;;8.93;8.05;;;19.70;86.70;;;;;;4954130;28;20459;-61
2022/08/20 05:23:35;;;;;;;8.50;7.70;;;19.70;86.60;;;;;;4954788;28;20055;-59
2022/08/20 05:26:06;;;;;;;8.38;7.53;;;19.70;86.60;;;;;;4953780;28;20058;-59
2022/08/20 05:28:37;;;;;;;8.27;7.47;;;19.70;86.70;;;;;;4953617;28;20046;-60
2022/08/20 05:31:06;;;;;;;8.40;7.60;;;19.70;86.70;;;;;;4955903;28;20507;-59
2022/08/20 05:33:32;;;;;;;7.85;7.15;;;19.70;86.50;;;;;;4954393;28;20066;-61
2022/08/20 05:35:57;;;;;;;7.82;7.13;;;19.70;86.40;;;;;;4957020;28;20046;-59
2022/08/20 05:38:27;;;;;;;9.02;7.43;;;19.70;86.40;;;;;;4955928;28;20046;-58
2022/08/20 05:40:52;;;;;;;7.85;7.15;;;19.70;86.60;;;;;;4954341;28;20034;-59
2022/08/20 05:43:19;;;;;;;8.20;7.40;;;19.60;86.50;;;;;;4952657;28;20042;-59
2022/08/20 05:45:46;;;;;;;8.25;7.32;;;19.60;86.60;;;;;;4953177;28;20517;-61
2022/08/20 05:48:15;;;;;;;10.07;7.40;;;19.70;87.50;;;;;;4953080;28;20062;-60
2022/08/20 05:50:43;;;;;;;8.32;7.55;;;19.60;86.70;;;;;;4954207;28;20929;-61
2022/08/20 05:53:09;;;;;;;8.40;7.60;;;19.60;86.60;;;;;;4956629;28;20126;-58
2022/08/20 05:55:37;;;;;;;8.60;7.80;;;19.60;86.60;;;;;;4955208;28;20273;-59
2022/08/20 05:58:07;;;;;;;8.63;7.72;;;19.60;86.60;;;;;;4956695;28;20047;-60
2022/08/20 06:00:33;;;;;;;8.85;7.95;;;19.60;86.60;;;;;;4949580;28;20101;-59
2022/08/20 06:05:53;;;;;;;9.80;8.27;;;19.70;86.60;;;;;;4907696;28;20123;-56
2022/08/20 06:08:19;;;;;;;8.70;7.80;;;19.60;86.50;;;;;;4954913;28;20515;-59
2022/08/20 06:10:45;;;;;;;8.70;7.85;;;19.60;86.60;;;;;;4949741;28;20447;-61
2022/08/20 06:13:10;;;;;;;8.82;7.93;;;19.60;86.70;;;;;;4951039;28;20086;-59
2022/08/20 06:15:37;;;;;;;9.23;8.32;;;19.60;86.90;;;;;;4953007;28;20070;-58
2022/08/20 06:18:06;;;;;;;9.07;8.18;;;19.60;86.90;;;;;;4954868;28;20031;-57
2022/08/20 06:20:34;;;;;;;9.50;8.60;;;19.60;87.00;;;;;;4951500;28;20122;-58
2022/08/20 06:22:59;;;;;;;9.35;8.40;;;19.60;87.10;;;;;;4951712;28;20086;-59
2022/08/20 06:25:25;;;;;;;9.10;7.95;;;19.60;87.10;;;;;;4951019;28;20039;-59
2022/08/20 06:27:51;;;;;;;8.32;7.45;;;19.70;87.20;;;;;;4951563;28;20506;-58
2022/08/20 06:30:17;;;;;;;8.40;7.50;;;19.60;87.20;;;;;;4956141;28;20047;-60
2022/08/20 06:32:43;;;;;;;8.88;8.07;;;19.70;88.10;;;;;;4952966;28;20062;-62
2022/08/20 06:35:10;;;;;;;9.15;8.23;;;19.70;87.30;;;;;;4959477;28;20490;-58
2022/08/20 06:37:38;;;;;;;8.82;7.78;;;19.70;87.40;;;;;;4956550;28;20488;-59
2022/08/20 06:40:11;;;;;;;8.48;7.68;;;19.80;87.60;;;;;;4957130;28;20036;-61
2022/08/20 06:42:42;;;;;;;8.10;7.30;;;19.80;87.60;;;;;;4953320;28;20122;-58
2022/08/20 06:45:12;;;;;;;7.47;6.70;;;19.80;87.60;;;;;;4951501;28;20093;-59
2022/08/20 06:47:40;;;;;;;7.53;6.88;;;19.80;87.70;;;;;;4953937;28;20051;-58
2022/08/20 06:50:12;;;;;;;7.50;6.72;;;19.90;87.80;;;;;;4955598;28;20062;-59
2022/08/20 06:52:39;;;;;;;7.28;6.57;;;19.90;87.60;;;;;;4950477;28;20444;-58
2022/08/20 06:55:07;;;;;;;7.38;6.68;;;20.00;87.70;;;;;;4953194;28;20526;-59
2022/08/20 06:57:35;;;;;;;7.30;6.60;;;20.00;87.60;;;;;;4949294;28;20043;-60
2022/08/20 07:00:03;;;;;;;6.45;5.93;;;20.10;87.30;;;;;;4954136;28;20126;-60
2022/08/20 07:02:29;;;;;;;6.78;5.95;;;20.10;87.30;;;;;;4945670;28;20105;-60
2022/08/20 07:04:55;;;;;;;6.40;5.80;;;20.10;87.10;;;;;;4955349;28;20035;-60
2022/08/20 07:07:20;;;;;;;5.93;5.40;;;20.10;86.90;;;;;;4954729;28;20031;-60
2022/08/20 07:09:47;;;;;;;6.57;5.95;;;20.30;86.90;;;;;;4951886;28;20063;-59
2022/08/20 07:12:13;;;;;;;5.85;5.35;;;20.30;86.90;;;;;;4947238;28;20572;-60
2022/08/20 07:14:39;;;;;;;6.10;5.50;;;20.30;87.00;;;;;;4953445;28;20120;-58
2022/08/20 07:17:05;;;;;;;5.72;5.22;;;20.40;87.10;;;;;;4953537;28;20396;-60
2022/08/20 07:19:32;;;;;;;5.82;5.07;;;20.40;87.00;;;;;;4951741;28;20042;-59
2022/08/20 07:21:57;;;;;;;5.30;4.90;;;20.50;86.80;;;;;;4953290;28;20090;-59
2022/08/20 07:24:23;;;;;;;5.63;5.10;;;20.60;86.50;;;;;;4952863;28;20328;-59
2022/08/20 07:26:50;;;;;;;5.25;4.85;;;20.60;86.40;;;;;;4952267;28;20043;-59
2022/08/20 07:29:17;;;;;;;5.40;4.88;;;20.70;86.70;;;;;;4953861;28;20062;-59
2022/08/20 07:34:29;;;;;;;5.28;4.78;;;20.80;86.30;;;;;;4950869;28;20077;-60
2022/08/20 07:36:58;;;;;;;4.65;4.25;;;20.80;86.00;;;;;;4952933;28;20074;-60
2022/08/20 07:39:24;;;;;;;6.75;4.28;;;20.90;85.50;;;;;;4951601;28;20042;-61
2022/08/20 07:42:01;;;;;;;4.65;4.22;;;21.00;85.70;;;;;;4953444;28;20110;-60
2022/08/20 07:44:30;;;;;;;5.35;4.95;;;21.10;85.80;;;;;;4946878;28;20105;-59
2022/08/20 07:46:58;;;;;;;4.63;4.22;;;21.10;85.30;;;;;;4950902;28;20039;-59
2022/08/20 07:49:23;;;;;;;4.72;4.32;;;21.20;85.40;;;;;;4949330;28;20559;-60
2022/08/20 07:51:49;;;;;;;4.72;4.32;;;21.30;85.50;;;;;;4953318;28;20039;-59
2022/08/20 07:54:14;;;;;;;4.68;4.28;;;21.30;85.50;;;;;;4948056;28;20303;-61
2022/08/20 07:56:40;;;;;;;4.43;4.03;;;21.40;85.50;;;;;;4952632;28;20081;-60
2022/08/20 07:59:05;;;;;;;4.30;3.95;;;21.50;85.50;;;;;;4941209;28;20043;-60
2022/08/20 08:01:31;;;;;;;4.60;4.20;;;21.60;85.90;;;;;;4954545;28;20097;-59
2022/08/20 08:03:58;;;;;;;4.80;4.40;;;21.60;85.30;;;;;;4951845;28;20051;-60
2022/08/20 08:06:26;;;;;;;4.40;4.00;;;21.70;85.00;;;;;;4946651;28;20045;-61
2022/08/20 08:08:52;;;;;;;4.68;4.25;;;21.80;84.50;;;;;;4952326;28;20066;-59
2022/08/20 08:11:18;;;;;;;4.55;4.15;;;21.90;85.70;;;;;;4947519;28;20442;-60
2022/08/20 08:13:43;;;;;;;4.90;4.22;;;21.90;84.80;;;;;;4948303;28;20403;-59
2022/08/20 08:16:09;;;;;;;5.80;4.18;;;22.10;84.70;;;;;;4947560;28;20035;-58
2022/08/20 08:18:40;;;;;;;3.45;3.20;;;22.20;84.30;;;;;;4950349;28;20094;-60
2022/08/20 08:21:07;;;;;;;3.00;2.80;;;22.20;84.70;;;;;;4950627;28;20030;-60
2022/08/20 08:23:33;;;;;;;3.50;2.70;;;22.40;84.50;;;;;;4937532;28;20118;-60
2022/08/20 08:25:59;;;;;;;2.70;2.50;;;22.40;82.30;;;;;;4947678;28;20118;-59
2022/08/20 08:28:28;;;;;;;2.40;2.20;;;22.50;81.70;;;;;;4948480;28;20047;-61
2022/08/20 08:30:54;;;;;;;2.88;2.60;;;22.60;81.00;;;;;;4948898;28;20063;-61
2022/08/20 08:33:26;;;;;;;3.00;2.80;;;22.60;81.00;;;;;;4947741;28;20634;-61
2022/08/20 08:35:53;;;;;;;3.10;2.53;;;22.70;80.60;;;;;;4944372;28;20502;-59
2022/08/20 08:38:21;;;;;;;3.30;3.00;;;22.80;81.10;;;;;;4946730;28;20565;-60
2022/08/20 08:40:48;;;;;;;3.67;2.50;;;22.80;80.40;;;;;;4946637;28;20031;-59
2022/08/20 08:43:14;;;;;;;2.63;2.42;;;22.90;79.70;;;;;;4943685;28;21731;-59
2022/08/20 08:45:47;;;;;;;3.08;2.78;;;22.90;79.90;;;;;;4941823;28;20027;-62
2022/08/20 08:48:15;;;;;;;2.80;2.60;;;22.90;78.30;;;;;;4942775;28;20067;-58
2022/08/20 08:50:44;;;;;;;2.83;2.63;;;22.90;79.30;;;;;;4946003;28;20533;-60
2022/08/20 08:53:18;;;;;;;3.00;2.80;;;22.90;79.60;;;;;;4947489;28;20043;-61
2022/08/20 08:55:44;;;;;;;2.78;2.58;;;23.00;78.40;;;;;;4953189;28;20487;-60
2022/08/20 08:58:09;;;;;;;2.70;2.50;;;23.00;78.70;;;;;;4956128;28;20185;-61
2022/08/20 09:00:35;;;;;;;2.50;2.30;;;23.00;77.70;;;;;;4950048;28;20035;-61
2022/08/20 09:03:08;;;;;;;2.83;2.60;;;23.10;78.20;;;;;;4957070;28;20510;-60
2022/08/20 09:05:47;;;;;;;4.43;2.58;;;23.20;77.20;;;;;;4956593;28;20043;-61
2022/08/20 09:08:18;;;;;;;2.80;2.60;;;23.20;76.30;;;;;;4955607;28;20038;-61
2022/08/20 09:10:44;;;;;;;2.75;2.53;;;23.20;77.00;;;;;;4951190;28;20522;-61
2022/08/20 09:13:11;;;;;;;2.58;2.38;;;23.30;77.30;;;;;;4954762;28;20038;-61
2022/08/20 09:15:36;;;;;;;3.47;2.80;;;23.50;77.70;;;;;;4955375;28;20043;-61
2022/08/20 09:18:02;;;;;;;2.80;2.47;;;23.40;76.90;;;;;;4956255;28;20538;-61
2022/08/20 09:20:28;;;;;;;2.90;2.70;;;23.50;76.90;;;;;;4955155;28;20106;-62
2022/08/20 09:22:54;;;;;;;3.28;2.60;;;23.50;75.40;;;;;;4956800;28;20034;-61
2022/08/20 09:25:20;;;;;;;3.25;2.58;;;23.50;75.40;;;;;;4955056;28;20529;-61
2022/08/20 09:27:46;;;;;;;3.78;2.80;;;23.60;75.50;;;;;;4954544;28;20031;-62
2022/08/20 09:30:12;;;;;;;2.70;2.50;;;23.60;75.90;;;;;;4955412;28;20058;-62
2022/08/20 09:32:38;;;;;;;2.70;2.50;;;23.70;75.50;;;;;;4954051;28;20027;-61
2022/08/20 09:35:04;;;;;;;4.25;2.53;;;23.70;74.60;;;;;;4958439;28;20521;-60
2022/08/20 09:37:31;;;;;;;2.88;2.58;;;23.70;74.50;;;;;;4953878;28;20050;-62
2022/08/20 09:39:57;;;;;;;3.42;2.65;;;23.80;74.40;;;;;;4955366;28;20162;-61
2022/08/20 09:42:28;;;;;;;2.63;2.40;;;23.80;74.00;;;;;;4953682;28;20035;-60
2022/08/20 09:44:54;;;;;;;2.53;2.38;;;23.90;74.20;;;;;;4954904;28;20039;-61
2022/08/20 09:47:20;;;;;;;2.70;2.50;;;23.90;74.80;;;;;;4951304;28;20043;-61
2022/08/20 09:49:46;;;;;;;3.05;2.60;;;23.90;74.60;;;;;;4944920;28;20035;-59
2022/08/20 09:52:29;;;;;;;2.78;2.58;;;24.00;73.70;;;;;;4946425;28;20043;-61
2022/08/20 09:54:59;;;;;;;4.82;2.60;;;24.00;72.50;;;;;;4951542;28;20065;-59
2022/08/20 09:57:25;;;;;;;2.67;2.40;;;24.00;72.90;;;;;;4955336;28;20078;-59
2022/08/20 09:59:57;;;;;;;5.03;2.40;;;23.90;74.10;;;;;;4951153;28;20078;-61
2022/08/20 10:02:24;;;;;;;2.50;2.30;;;23.90;73.30;;;;;;4953936;28;20719;-61
2022/08/20 10:04:50;;;;;;;4.18;2.72;;;23.90;73.90;;;;;;4953894;28;20070;-59
2022/08/20 10:07:15;;;;;;;3.88;3.20;;;23.90;73.60;;;;;;4952531;28;20118;-61
2022/08/20 10:09:41;;;;;;;3.60;3.30;;;23.90;73.70;;;;;;4953662;28;20526;-61
2022/08/20 10:12:07;;;;;;;2.85;2.65;;;23.90;73.50;;;;;;4951969;28;20060;-60
2022/08/20 10:14:32;;;;;;;3.08;2.33;;;23.90;73.50;;;;;;4954355;28;20529;-61
2022/08/20 10:16:59;;;;;;;2.67;2.47;;;23.90;73.70;;;;;;4955072;28;20046;-59
2022/08/20 10:19:27;;;;;;;2.70;2.50;;;23.90;73.40;;;;;;4953462;28;20069;-60
2022/08/20 10:21:53;;;;;;;2.75;2.55;;;23.90;73.20;;;;;;4954294;28;20058;-60
2022/08/20 10:24:20;;;;;;;3.00;2.80;;;23.90;73.30;;;;;;4956965;28;20047;-61
2022/08/20 10:26:46;;;;;;;2.95;2.70;;;24.00;73.60;;;;;;4951868;28;20333;-62
2022/08/20 10:29:12;;;;;;;3.03;2.72;;;24.00;73.80;;;;;;4953949;28;20035;-60
2022/08/20 10:31:38;;;;;;;2.72;2.15;;;24.00;73.70;;;;;;4953704;28;20552;-62
2022/08/20 10:34:03;;;;;;;2.58;2.30;;;24.10;73.00;;;;;;4955264;28;20054;-60
2022/08/20 10:36:29;;;;;;;2.28;2.08;;;24.10;72.50;;;;;;4954437;28;20041;-61
2022/08/20 10:38:54;;;;;;;2.00;1.83;;;24.10;72.10;;;;;;4954619;28;20399;-61
2022/08/20 10:41:20;;;;;;;1.73;1.63;;;24.10;71.60;;;;;;4955218;28;20113;-60
2022/08/20 10:43:46;;;;;;;2.05;1.95;;;24.20;72.30;;;;;;4953468;28;20395;-60
2022/08/20 10:46:12;;;;;;;2.25;1.75;;;24.30;71.30;;;;;;4954464;28;20062;-62
2022/08/20 10:48:38;;;;;;;2.08;1.80;;;24.40;69.60;;;;;;4954561;28;20051;-60
2022/08/20 10:51:05;;;;;;;3.13;1.77;;;24.40;70.90;;;;;;4955037;28;20254;-59
2022/08/20 10:53:31;;;;;;;2.30;2.10;;;24.50;70.00;;;;;;4952522;28;20051;-60
2022/08/20 10:55:57;;;;;;;2.42;2.05;;;24.50;69.30;;;;;;4955599;28;20498;-62
2022/08/20 10:58:24;;;;;;;2.70;2.50;;;24.60;69.40;;;;;;4955642;28;20047;-61
2022/08/20 11:00:50;;;;;;;2.15;1.95;;;24.60;69.70;;;;;;4950235;28;20039;-61
2022/08/20 11:03:16;;;;;;;1.98;1.88;;;24.70;68.90;;;;;;4952843;28;20119;-60
2022/08/20 11:05:42;;;;;;;2.38;2.08;;;24.70;69.40;;;;;;4954163;28;20122;-61
2022/08/20 11:08:08;;;;;;;1.50;1.40;;;24.70;69.10;;;;;;4955184;28;20062;-62
2022/08/20 11:10:37;;;;;;;1.83;1.73;;;24.70;68.00;;;;;;4950110;28;20385;-61
2022/08/20 11:13:04;;;;;;;2.45;2.25;;;24.80;67.40;;;;;;4953264;28;20052;-62
2022/08/20 11:15:32;;;;;;;1.83;1.73;;;24.80;67.70;;;;;;4952014;28;20571;-62
2022/08/20 11:17:58;;;;;;;2.17;1.98;;;24.90;67.20;;;;;;4953640;28;20054;-61
2022/08/20 11:20:25;;;;;;;2.53;2.33;;;24.90;67.00;;;;;;4952092;28;20051;-62
2022/08/20 11:22:51;;;;;;;2.00;1.90;;;24.90;66.40;;;;;;4950953;28;20035;-61
2022/08/20 11:25:18;;;;;;;1.80;1.70;;;24.90;67.30;;;;;;4953511;28;20952;-60
2022/08/20 11:27:47;;;;;;;2.80;1.77;;;24.90;65.60;;;;;;4949899;28;20096;-61
2022/08/20 11:30:17;;;;;;;1.92;1.73;;;24.90;64.30;;;;;;4946813;28;20082;-61
2022/08/20 11:32:43;;;;;;;3.85;2.30;;;24.80;65.30;;;;;;4952320;28;20035;-62
2022/08/20 11:35:09;;;;;;;2.17;1.95;;;24.80;65.90;;;;;;4949979;28;20479;-61
2022/08/20 11:37:35;;;;;;;2.30;2.10;;;24.80;66.40;;;;;;4950859;28;20070;-61
2022/08/20 11:40:01;;;;;;;2.47;2.30;;;24.80;65.90;;;;;;4951654;28;20277;-59
2022/08/20 11:42:26;;;;;;;2.25;2.08;;;24.80;65.70;;;;;;4949612;28;20181;-61
2022/08/20 11:44:52;;;;;;;2.30;2.10;;;24.80;65.70;;;;;;4948581;28;20756;-60
2022/08/20 11:47:26;;;;;;;5.07;2.50;;;24.80;66.50;;;;;;4950190;28;20031;-60
2022/08/20 11:50:00;;;;;;;2.55;2.35;;;24.70;68.10;;;;;;4949940;28;20050;-61
2022/08/20 11:52:27;;;;;;;2.28;2.08;;;24.70;68.80;;;;;;4952446;28;20040;-60
2022/08/20 11:54:54;;;;;;;1.48;1.38;;;24.60;68.40;;;;;;4951185;28;20043;-60
2022/08/20 11:57:25;;;;;;;1.13;0.90;;;24.40;68.30;;;;;;4955454;28;20118;-59
2022/08/20 11:59:52;;;;;;;0.50;0.50;;;24.30;67.80;;;;;;4948851;28;20043;-60
2022/08/20 12:02:18;;;;;;;0.60;0.43;;;24.20;66.70;;;;;;4951593;28;20042;-60
2022/08/20 12:04:44;;;;;;;0.43;0.40;;;24.00;66.70;;;;;;4949688;28;20047;-60
2022/08/20 12:07:19;;;;;;;1.00;0.38;;;23.80;67.40;;;;;;4947164;28;20048;-59
2022/08/20 12:09:44;;;;;;;;;;;23.70;66.80;;;;;;4952166;28;20049;-60
2022/08/20 12:12:11;;;;;;;0.30;0.30;;;23.60;66.70;;;;;;4947850;28;19914;-61
2022/08/20 12:14:36;;;;;;;0.45;0.30;;;23.50;68.00;;;;;;4946013;28;20423;-59
2022/08/20 12:17:20;;;;;;;1.80;0.30;;;23.40;68.60;;;;;;4946455;28;20043;-61
2022/08/20 12:19:46;;;;;;;0.20;0.20;;;23.40;68.70;;;;;;4942992;28;20545;-61
2022/08/20 12:22:11;;;;;;;1.30;0.30;;;23.30;69.10;;;;;;4946474;28;20043;-59
2022/08/20 12:24:37;;;;;;;0.10;0.10;;;23.30;68.90;;;;;;4942048;28;20418;-61
2022/08/20 12:27:17;;;;;;;0.88;0.20;;;23.30;68.60;;;;;;4944862;28;20545;-61
2022/08/20 12:29:46;;;;;;;0.20;0.20;;;23.30;68.10;;;;;;4947935;28;20043;-60
2022/08/20 12:32:11;;;;;;;0.30;0.30;;;23.30;68.70;;;;;;4948420;28;20089;-61
2022/08/20 12:34:39;;;;;;;0.20;0.20;;;23.30;68.80;;;;;;4948823;28;20488;-62
2022/08/20 12:37:08;;;;;;;0.30;0.30;;;23.40;68.70;;;;;;4952340;28;20039;-62
2022/08/20 12:39:36;;;;;;;0.45;0.30;;;23.30;69.30;;;;;;4951761;28;20043;-61
2022/08/20 12:42:03;;;;;;;0.30;0.30;;;23.30;69.60;;;;;;4953117;28;20486;-62
2022/08/20 12:44:29;;;;;;;1.20;0.50;;;23.30;69.60;;;;;;4955936;28;20069;-62
2022/08/20 12:47:11;;;;;;;0.40;0.40;;;23.30;69.90;;;;;;4955287;28;20074;-61
2022/08/20 12:49:38;;;;;;;0.93;0.40;;;23.20;69.50;;;;;;4951801;28;20043;-62